createdAt,value
2019-05-05T00:02:24.991Z,4.50
2019-05-05T00:05:02.246Z,4.50
2019-05-05T00:07:34.819Z,4.50
2019-05-05T00:10:07.185Z,4.40
2019-05-05T00:12:55.457Z,4.50
2019-05-05T00:15:44.904Z,4.40
2019-05-05T00:18:14.874Z,4.50
2019-05-05T00:20:44.680Z,4.50
2019-05-05T00:23:14.655Z,4.50
2019-05-05T00:25:44.740Z,4.50
2019-05-05T00:28:14.377Z,4.40
2019-05-05T00:30:44.848Z,4.40
2019-05-05T00:33:14.630Z,4.30
2019-05-05T00:35:45.107Z,4.30
2019-05-05T00:38:14.607Z,4.30
2019-05-05T00:40:44.379Z,4.30
2019-05-05T00:43:14.762Z,4.40
2019-05-05T00:45:45.804Z,4.40
2019-05-05T00:48:20.501Z,4.30
2019-05-05T00:50:51.833Z,4.30
2019-05-05T00:53:20.942Z,4.30
2019-05-05T00:55:50.299Z,4.30
2019-05-05T00:58:19.635Z,4.30
2019-05-05T01:00:58.371Z,4.30
2019-05-05T01:03:28.155Z,4.20
2019-05-05T01:06:22.493Z,4.20
2019-05-05T01:08:51.816Z,4.20
2019-05-05T01:11:21.447Z,4.20
2019-05-05T01:13:50.996Z,4.20
2019-05-05T01:16:20.365Z,4.20
2019-05-05T01:18:49.717Z,4.20
2019-05-05T01:21:19.079Z,4.20
2019-05-05T01:23:48.415Z,4.20
2019-05-05T01:26:17.738Z,4.20
2019-05-05T01:28:47.298Z,4.20
2019-05-05T01:31:18.632Z,4.10
2019-05-05T01:34:16.198Z,4.10
2019-05-05T01:36:46.789Z,4.10
2019-05-05T01:39:34.553Z,4.10
2019-05-05T01:42:10.172Z,4.10
2019-05-05T01:44:39.500Z,4.10
2019-05-05T01:47:08.829Z,4.10
2019-05-05T01:49:38.188Z,4.10
2019-05-05T01:52:07.501Z,4.10
2019-05-05T01:54:36.860Z,4.10
2019-05-05T01:57:06.676Z,4.10
2019-05-05T01:59:37.154Z,4.10
2019-05-05T02:02:06.778Z,4.10
2019-05-05T02:04:36.103Z,4.10
2019-05-05T02:07:06.043Z,4.10
2019-05-05T02:09:35.573Z,4.10
2019-05-05T02:12:05.302Z,4.10
2019-05-05T02:14:35.314Z,4.10
2019-05-05T02:17:05.164Z,4.00
2019-05-05T02:19:35.146Z,4.10
2019-05-05T02:22:05.405Z,4.10
2019-05-05T02:24:35.479Z,4.10
2019-05-05T02:27:05.281Z,4.00
2019-05-05T02:29:40.489Z,4.00
2019-05-05T02:32:36.096Z,4.10
2019-05-05T02:35:08.964Z,4.00
2019-05-05T02:37:38.397Z,4.10
2019-05-05T02:40:09.652Z,4.10
2019-05-05T02:42:39.435Z,4.10
2019-05-05T02:45:15.493Z,4.10
2019-05-05T02:48:05.531Z,4.10
2019-05-05T02:51:00.265Z,4.10
2019-05-05T02:53:25.197Z,4.10
2019-05-05T02:55:58.777Z,4.10
2019-05-05T02:58:30.369Z,4.10
2019-05-05T03:01:08.416Z,4.10
2019-05-05T03:03:38.878Z,4.10
2019-05-05T03:06:08.225Z,4.10
2019-05-05T03:08:39.471Z,4.10
2019-05-05T03:11:09.476Z,4.10
2019-05-05T03:13:41.203Z,4.10
2019-05-05T03:16:19.943Z,4.10
2019-05-05T03:18:50.355Z,4.10
2019-05-05T03:21:20.898Z,4.10
2019-05-05T03:23:50.449Z,4.10
2019-05-05T03:26:19.873Z,4.10
2019-05-05T03:28:54.499Z,4.10
2019-05-05T03:31:26.268Z,4.10
2019-05-05T03:33:56.684Z,4.10
2019-05-05T03:36:27.153Z,4.10
2019-05-05T03:38:56.469Z,4.10
2019-05-05T03:41:49.607Z,4.10
2019-05-05T03:44:24.205Z,4.10
2019-05-05T03:46:54.714Z,4.10
2019-05-05T03:49:24.412Z,4.10
2019-05-05T03:51:54.421Z,4.10
2019-05-05T03:54:23.969Z,4.10
2019-05-05T03:57:07.951Z,4.10
2019-05-05T03:59:40.017Z,4.10
2019-05-05T04:02:28.619Z,4.10
2019-05-05T04:05:00.803Z,4.10
2019-05-05T04:07:30.165Z,4.10
2019-05-05T04:09:59.459Z,4.10
2019-05-05T04:12:28.756Z,4.10
2019-05-05T04:14:59.376Z,4.10
2019-05-05T04:18:04.004Z,4.10
2019-05-05T04:20:44.182Z,4.10
2019-05-05T04:23:14.229Z,4.20
2019-05-05T04:25:44.013Z,4.20
2019-05-05T04:28:13.685Z,4.20
2019-05-05T04:30:44.481Z,4.20
2019-05-05T04:33:14.398Z,4.20
2019-05-05T04:35:44.450Z,4.30
2019-05-05T04:38:14.125Z,4.30
2019-05-05T04:40:43.661Z,4.30
2019-05-05T04:43:14.293Z,4.30
2019-05-05T04:45:43.857Z,4.30
2019-05-05T04:48:17.822Z,4.40
2019-05-05T04:50:54.299Z,4.40
2019-05-05T04:53:31.521Z,4.40
2019-05-05T04:56:00.943Z,4.40
2019-05-05T04:58:30.262Z,4.50
2019-05-05T05:00:59.586Z,4.50
2019-05-05T05:03:46.057Z,4.50
2019-05-05T05:06:18.449Z,4.60
2019-05-05T05:08:47.751Z,4.70
2019-05-05T05:11:17.134Z,4.70
2019-05-05T05:13:46.458Z,4.80
2019-05-05T05:16:15.778Z,4.80
2019-05-05T05:18:45.096Z,4.90
2019-05-05T05:21:14.726Z,5.00
2019-05-05T05:23:44.523Z,5.00
2019-05-05T05:26:14.096Z,5.00
2019-05-05T05:28:44.742Z,5.10
2019-05-05T05:31:14.368Z,5.20
2019-05-05T05:33:43.840Z,5.20
2019-05-05T05:36:14.376Z,5.30
2019-05-05T05:38:45.561Z,5.30
2019-05-05T05:41:16.891Z,5.40
2019-05-05T05:44:08.127Z,5.40
2019-05-05T05:46:59.269Z,5.40
2019-05-05T05:49:34.508Z,5.50
2019-05-05T05:52:13.415Z,5.50
2019-05-05T05:54:34.702Z,5.50
2019-05-05T05:57:04.397Z,5.50
2019-05-05T05:59:34.018Z,5.60
2019-05-05T06:02:11.642Z,5.60
2019-05-05T06:04:34.542Z,5.60
2019-05-05T06:07:04.178Z,5.70
2019-05-05T06:09:34.457Z,5.70
2019-05-05T06:12:04.142Z,5.70
2019-05-05T06:14:34.101Z,5.70
2019-05-05T06:17:04.306Z,5.80
2019-05-05T06:19:33.968Z,5.80
2019-05-05T06:22:03.617Z,5.80
2019-05-05T06:24:34.616Z,5.90
2019-05-05T06:27:04.677Z,5.90
2019-05-05T06:29:34.483Z,5.90
2019-05-05T06:32:04.205Z,6.00
2019-05-05T06:34:33.947Z,6.00
2019-05-05T06:37:04.290Z,6.10
2019-05-05T06:39:33.839Z,6.10
2019-05-05T06:42:13.640Z,6.10
2019-05-05T06:44:50.826Z,6.20
2019-05-05T06:47:23.694Z,6.20
2019-05-05T06:49:54.173Z,6.20
2019-05-05T06:52:24.851Z,6.20
2019-05-05T06:54:54.413Z,6.20
2019-05-05T06:57:24.125Z,6.20
2019-05-05T06:59:54.452Z,6.30
2019-05-05T07:02:24.090Z,6.30
2019-05-05T07:04:54.616Z,6.30
2019-05-05T07:07:24.265Z,6.40
2019-05-05T07:09:54.287Z,6.40
2019-05-05T07:12:24.252Z,6.40
2019-05-05T07:14:53.934Z,6.40
2019-05-05T07:17:24.516Z,6.50
2019-05-05T07:19:54.439Z,6.50
2019-05-05T07:22:24.458Z,6.60
2019-05-05T07:24:54.290Z,6.60
2019-05-05T07:27:24.329Z,6.70
2019-05-05T07:29:54.241Z,6.70
2019-05-05T07:32:24.503Z,6.80
2019-05-05T07:35:19.193Z,6.90
2019-05-05T07:37:48.569Z,6.90
2019-05-05T07:40:18.085Z,7.00
2019-05-05T07:42:47.520Z,7.10
2019-05-05T07:45:22.411Z,7.20
2019-05-05T07:47:48.211Z,7.40
2019-05-05T07:50:28.958Z,7.50
2019-05-05T07:52:48.769Z,7.60
2019-05-05T07:55:18.342Z,7.80
2019-05-05T07:57:47.862Z,7.90
2019-05-05T08:00:17.805Z,8.00
2019-05-05T08:02:47.244Z,8.10
2019-05-05T08:05:17.814Z,8.20
2019-05-05T08:07:47.217Z,8.20
2019-05-05T08:10:16.883Z,8.20
2019-05-05T08:12:46.319Z,8.30
2019-05-05T08:15:17.707Z,8.40
2019-05-05T08:18:13.901Z,8.50
2019-05-05T08:20:46.366Z,8.60
2019-05-05T08:23:30.352Z,8.60
2019-05-05T08:26:04.478Z,8.70
2019-05-05T08:28:47.674Z,8.80
2019-05-05T08:31:21.905Z,8.90
2019-05-05T08:33:51.485Z,9.00
2019-05-05T08:36:20.958Z,9.10
2019-05-05T08:38:50.301Z,9.10
2019-05-05T08:41:19.729Z,9.10
2019-05-05T08:43:49.198Z,9.10
2019-05-05T08:46:18.710Z,9.20
2019-05-05T08:48:48.079Z,9.20
2019-05-05T08:51:17.512Z,9.30
2019-05-05T08:53:48.317Z,9.40
2019-05-05T08:56:18.131Z,9.60
2019-05-05T08:58:49.782Z,9.70
2019-05-05T09:01:18.907Z,9.80
2019-05-05T09:03:48.373Z,9.80
2019-05-05T09:06:17.812Z,9.80
2019-05-05T09:08:47.261Z,9.90
2019-05-05T09:11:16.750Z,10.00
2019-05-05T09:13:46.258Z,10.10
2019-05-05T09:16:15.679Z,10.20
2019-05-05T09:19:00.487Z,10.20
2019-05-05T09:21:29.974Z,10.20
2019-05-05T09:24:03.232Z,10.20
2019-05-05T09:26:56.981Z,10.30
2019-05-05T09:29:29.392Z,10.50
2019-05-05T09:31:59.016Z,10.70
2019-05-05T09:34:28.415Z,10.80
2019-05-05T09:36:58.812Z,10.90
2019-05-05T09:39:28.236Z,11.00
2019-05-05T09:41:57.807Z,11.00
2019-05-05T09:44:27.227Z,11.00
2019-05-05T09:46:56.730Z,10.90
2019-05-05T09:49:26.262Z,10.90
2019-05-05T09:51:55.808Z,10.80
2019-05-05T09:54:25.196Z,10.80
2019-05-05T09:56:54.707Z,10.80
2019-05-05T09:59:24.266Z,10.80
2019-05-05T10:01:53.971Z,10.80
2019-05-05T10:04:24.895Z,10.80
2019-05-05T10:06:54.343Z,10.80
2019-05-05T10:09:24.252Z,10.80
2019-05-05T10:11:54.145Z,10.80
2019-05-05T10:14:23.576Z,10.90
2019-05-05T10:16:54.096Z,11.00
2019-05-05T10:19:24.354Z,11.10
2019-05-05T10:21:54.067Z,11.30
2019-05-05T10:24:31.303Z,11.40
2019-05-05T10:27:01.225Z,11.50
2019-05-05T10:29:30.672Z,11.70
2019-05-05T10:32:00.038Z,11.70
2019-05-05T10:34:29.489Z,11.80
2019-05-05T10:36:58.935Z,11.80
2019-05-05T10:39:33.856Z,11.80
2019-05-05T10:42:04.075Z,11.80
2019-05-05T10:44:34.184Z,11.80
2019-05-05T10:47:04.550Z,11.80
2019-05-05T10:49:34.392Z,11.90
2019-05-05T10:52:03.992Z,11.80
2019-05-05T10:54:43.154Z,11.90
2019-05-05T10:57:04.888Z,11.90
2019-05-05T10:59:34.609Z,11.90
2019-05-05T11:02:04.935Z,11.90
2019-05-05T11:04:34.724Z,11.90
2019-05-05T11:07:04.424Z,11.80
2019-05-05T11:09:34.647Z,11.80
2019-05-05T11:12:04.157Z,11.80
2019-05-05T11:14:33.801Z,11.90
2019-05-05T11:17:04.160Z,11.80
2019-05-05T11:19:34.020Z,11.80
2019-05-05T11:22:03.526Z,11.80
2019-05-05T11:24:34.597Z,11.70
2019-05-05T11:27:04.539Z,11.80
2019-05-05T11:29:35.714Z,11.90
2019-05-05T11:32:09.658Z,11.90
2019-05-05T11:34:39.117Z,12.00
2019-05-05T11:37:10.987Z,12.00
2019-05-05T11:39:40.349Z,12.10
2019-05-05T11:42:09.725Z,12.10
2019-05-05T11:44:39.110Z,12.10
2019-05-05T11:47:08.539Z,12.10
2019-05-05T11:49:37.995Z,12.20
2019-05-05T11:52:07.446Z,12.20
2019-05-05T11:54:36.911Z,12.20
2019-05-05T11:57:06.432Z,12.40
2019-05-05T11:59:37.397Z,12.40
2019-05-05T12:02:08.121Z,12.60
2019-05-05T12:04:37.850Z,12.60
2019-05-05T12:07:07.485Z,12.70
2019-05-05T12:09:44.396Z,12.80
2019-05-05T12:12:14.332Z,12.80
2019-05-05T12:14:44.288Z,12.70
2019-05-05T12:17:15.294Z,12.70
2019-05-05T12:19:44.926Z,12.70
2019-05-05T12:22:14.477Z,12.70
2019-05-05T12:24:46.355Z,12.70
2019-05-05T12:27:24.598Z,12.80
2019-05-05T12:29:58.271Z,12.90
2019-05-05T12:32:27.864Z,12.90
2019-05-05T12:34:59.741Z,12.90
2019-05-05T12:37:29.274Z,12.90
2019-05-05T12:39:59.457Z,12.90
2019-05-05T12:42:28.957Z,13.00
2019-05-05T12:45:04.488Z,13.00
2019-05-05T12:47:52.028Z,13.10
2019-05-05T12:50:21.807Z,13.20
2019-05-05T12:53:00.200Z,13.30
2019-05-05T12:55:41.491Z,13.30
2019-05-05T12:58:58.307Z,13.30
2019-05-05T13:01:57.878Z,13.40
2019-05-05T13:04:24.746Z,13.50
2019-05-05T13:07:00.625Z,13.50
2019-05-05T13:09:35.528Z,13.50
2019-05-05T13:12:05.687Z,13.60
2019-05-05T13:14:35.260Z,13.50
2019-05-05T13:17:04.742Z,13.60
2019-05-05T13:19:40.416Z,13.50
2019-05-05T13:22:37.863Z,13.50
2019-05-05T13:28:00.716Z,13.60
2019-05-05T13:30:30.073Z,13.60
2019-05-05T13:32:59.527Z,13.50
2019-05-05T13:35:29.027Z,13.50
2019-05-05T13:37:58.828Z,13.50
2019-05-05T13:40:28.380Z,13.50
2019-05-05T13:42:57.765Z,13.50
2019-05-05T13:45:34.303Z,13.40
2019-05-05T13:48:03.958Z,13.40
2019-05-05T13:50:38.457Z,13.30
2019-05-05T13:53:09.563Z,13.30
2019-05-05T13:55:42.352Z,13.30
2019-05-05T13:58:14.702Z,13.20
2019-05-05T14:00:45.441Z,13.20
2019-05-05T14:03:15.331Z,13.20
2019-05-05T14:05:45.803Z,13.10
2019-05-05T14:08:15.719Z,13.00
2019-05-05T14:10:45.698Z,12.90
2019-05-05T14:13:16.184Z,12.90
2019-05-05T14:15:46.327Z,13.00
2019-05-05T14:18:15.998Z,13.10
2019-05-05T14:20:45.682Z,13.20
2019-05-05T14:23:16.132Z,13.30
2019-05-05T14:25:45.844Z,13.50
2019-05-05T14:28:18.157Z,13.60
2019-05-05T14:30:59.029Z,13.70
2019-05-05T14:33:48.503Z,13.70
2019-05-05T14:36:34.892Z,13.80
2019-05-05T14:39:11.705Z,13.90
2019-05-05T14:41:38.872Z,14.00
2019-05-05T14:44:13.442Z,14.00
2019-05-05T14:46:44.564Z,13.90
2019-05-05T14:49:14.681Z,13.90
2019-05-05T14:51:44.721Z,13.90
2019-05-05T14:54:14.930Z,13.80
2019-05-05T14:56:44.867Z,13.70
2019-05-05T14:59:14.629Z,13.70
2019-05-05T15:01:44.743Z,13.60
2019-05-05T15:04:16.360Z,13.50
2019-05-05T15:06:50.601Z,13.40
2019-05-05T15:09:51.263Z,13.30
2019-05-05T15:12:30.257Z,13.20
2019-05-05T15:15:06.913Z,13.10
2019-05-05T15:17:35.565Z,13.00
2019-05-05T15:20:05.975Z,13.00
2019-05-05T15:22:37.183Z,13.00
2019-05-05T15:25:07.384Z,12.90
2019-05-05T15:27:41.668Z,12.80
2019-05-05T15:30:11.254Z,12.70
2019-05-05T15:32:40.692Z,12.70
2019-05-05T15:35:10.081Z,12.70
2019-05-05T15:37:39.581Z,12.70
2019-05-05T15:40:09.103Z,12.70
2019-05-05T15:42:38.610Z,12.80
2019-05-05T15:45:08.278Z,12.90
2019-05-05T15:47:37.718Z,13.00
2019-05-05T15:50:07.685Z,13.10
2019-05-05T15:52:37.071Z,13.30
2019-05-05T15:55:07.310Z,13.40
2019-05-05T15:57:36.842Z,13.50
2019-05-05T16:00:06.509Z,13.60
2019-05-05T16:02:36.191Z,13.50
2019-05-05T16:05:06.248Z,13.50
2019-05-05T16:07:35.679Z,13.50
2019-05-05T16:10:05.535Z,13.50
2019-05-05T16:12:39.413Z,13.50
2019-05-05T16:15:26.340Z,13.50
2019-05-05T16:18:23.930Z,13.50
2019-05-05T16:21:08.867Z,13.50
2019-05-05T16:23:44.401Z,13.50
2019-05-05T16:26:14.005Z,13.30
2019-05-05T16:28:44.542Z,13.30
2019-05-05T16:31:14.944Z,13.20
2019-05-05T16:33:48.626Z,13.30
2019-05-05T16:36:17.619Z,13.20
2019-05-05T16:38:47.244Z,13.20
2019-05-05T16:41:16.963Z,13.20
2019-05-05T16:43:46.694Z,13.10
2019-05-05T16:46:17.086Z,13.10
2019-05-05T16:48:46.807Z,13.00
2019-05-05T16:51:18.405Z,13.00
2019-05-05T16:53:48.088Z,13.00
2019-05-05T16:56:19.545Z,12.90
2019-05-05T16:58:49.008Z,12.90
2019-05-05T17:01:18.863Z,12.80
2019-05-05T17:03:48.488Z,12.70
2019-05-05T17:06:18.495Z,12.60
2019-05-05T17:08:48.160Z,12.50
2019-05-05T17:11:17.973Z,12.30
2019-05-05T17:14:06.699Z,12.20
2019-05-05T17:16:48.607Z,12.20
2019-05-05T17:19:22.940Z,12.10
2019-05-05T17:22:17.990Z,12.00
2019-05-05T17:24:47.595Z,12.00
2019-05-05T17:27:17.168Z,11.80
2019-05-05T17:29:46.750Z,11.80
2019-05-05T17:32:16.405Z,11.70
2019-05-05T17:34:45.896Z,11.70
2019-05-05T17:37:15.454Z,11.70
2019-05-05T17:39:59.387Z,11.70
2019-05-05T17:42:47.732Z,11.70
2019-05-05T17:45:25.796Z,11.60
2019-05-05T17:48:04.853Z,11.50
2019-05-05T17:51:13.752Z,11.50
2019-05-05T17:53:59.808Z,11.40
2019-05-05T17:56:29.255Z,11.40
2019-05-05T17:58:58.651Z,11.30
2019-05-05T18:01:28.276Z,11.30
2019-05-05T18:03:57.735Z,11.30
2019-05-05T18:06:44.165Z,11.30
2019-05-05T18:09:19.628Z,11.20
2019-05-05T18:12:07.966Z,11.10
2019-05-05T18:14:37.786Z,11.10
2019-05-05T18:17:07.237Z,11.10
2019-05-05T18:19:36.582Z,11.00
2019-05-05T18:22:05.973Z,11.00
2019-05-05T18:24:35.339Z,10.90
2019-05-05T18:27:04.777Z,10.90
2019-05-05T18:29:34.258Z,10.80
2019-05-05T18:32:04.361Z,10.80
2019-05-05T18:34:33.896Z,10.80
2019-05-05T18:37:03.752Z,10.80
2019-05-05T18:39:34.281Z,10.70
2019-05-05T18:42:16.572Z,10.70
2019-05-05T18:44:48.411Z,10.60
2019-05-05T18:47:19.090Z,10.60
2019-05-05T18:49:48.553Z,10.50
2019-05-05T18:52:17.975Z,10.50
2019-05-05T18:54:47.479Z,10.40
2019-05-05T18:57:16.943Z,10.30
2019-05-05T18:59:46.611Z,10.30
2019-05-05T19:02:46.842Z,10.20
2019-05-05T19:05:40.372Z,10.20
2019-05-05T19:08:14.317Z,10.10
2019-05-05T19:10:43.764Z,10.10
2019-05-05T19:13:13.693Z,10.00
2019-05-05T19:15:43.402Z,10.00
2019-05-05T19:18:14.062Z,9.90
2019-05-05T19:21:07.571Z,9.90
2019-05-05T19:23:37.001Z,9.90
2019-05-05T19:26:07.697Z,9.90
2019-05-05T19:28:44.248Z,9.80
2019-05-05T19:31:08.551Z,9.80
2019-05-05T19:33:38.047Z,9.80
2019-05-05T19:36:07.492Z,9.70
2019-05-05T19:38:36.993Z,9.70
2019-05-05T19:41:06.425Z,9.60
2019-05-05T19:43:38.665Z,9.60
2019-05-05T19:46:09.701Z,9.60
2019-05-05T19:48:39.213Z,9.60
2019-05-05T19:51:11.592Z,9.50
2019-05-05T19:53:41.094Z,9.50
2019-05-05T19:56:10.580Z,9.40
2019-05-05T19:58:40.129Z,9.40
2019-05-05T20:01:09.565Z,9.30
2019-05-05T20:03:40.061Z,9.30
2019-05-05T20:06:09.653Z,9.20
2019-05-05T20:08:41.262Z,9.10
2019-05-05T20:11:10.228Z,9.10
2019-05-05T20:13:40.345Z,9.10
2019-05-05T20:16:28.913Z,9.10
2019-05-05T20:18:58.391Z,9.00
2019-05-05T20:21:28.111Z,8.90
2019-05-05T20:23:57.593Z,8.90
2019-05-05T20:26:27.085Z,8.90
2019-05-05T20:29:10.223Z,8.90
2019-05-05T20:31:27.839Z,8.90
2019-05-05T20:34:04.139Z,8.90
2019-05-05T20:36:34.683Z,8.80
2019-05-05T20:39:05.665Z,8.80
2019-05-05T20:41:35.037Z,8.70
2019-05-05T20:44:05.933Z,8.70
2019-05-05T20:46:35.564Z,8.60
2019-05-05T20:49:05.034Z,8.60
2019-05-05T20:51:34.410Z,8.50
2019-05-05T20:54:04.918Z,8.50
2019-05-05T20:56:34.523Z,8.50
2019-05-05T20:59:04.002Z,8.50
2019-05-05T21:01:34.114Z,8.40
2019-05-05T21:04:04.733Z,8.40
2019-05-05T21:06:34.453Z,8.40
2019-05-05T21:09:05.597Z,8.30
2019-05-05T21:11:34.945Z,8.30
2019-05-05T21:14:04.319Z,8.30
2019-05-05T21:16:34.270Z,8.20
2019-05-05T21:19:04.605Z,8.20
2019-05-05T21:21:35.877Z,8.10
2019-05-05T21:24:05.352Z,8.20
2019-05-05T21:26:54.289Z,8.20
2019-05-05T21:29:23.828Z,8.10
2019-05-05T21:31:54.895Z,8.00
2019-05-05T21:34:24.903Z,8.00
2019-05-05T21:36:54.428Z,8.00
2019-05-05T21:39:24.877Z,8.00
2019-05-05T21:41:54.521Z,7.90
2019-05-05T21:44:23.894Z,7.90
2019-05-05T21:46:53.777Z,7.90
2019-05-05T21:49:24.215Z,7.90
2019-05-05T21:52:00.529Z,7.80
2019-05-05T21:54:55.025Z,7.80
2019-05-05T21:57:44.055Z,7.80
2019-05-05T22:00:34.578Z,7.80
2019-05-05T22:03:05.074Z,7.70
2019-05-05T22:05:34.415Z,7.70
2019-05-05T22:08:04.718Z,7.70
2019-05-05T22:10:34.431Z,7.70
2019-05-05T22:13:04.885Z,7.70
2019-05-05T22:15:35.772Z,7.70
2019-05-05T22:18:05.272Z,7.60
2019-05-05T22:20:40.296Z,7.60
2019-05-05T22:23:09.686Z,7.50
2019-05-05T22:25:39.126Z,7.60
2019-05-05T22:28:08.446Z,7.50
2019-05-05T22:30:38.174Z,7.50
2019-05-05T22:33:07.538Z,7.50
2019-05-05T22:35:36.935Z,7.40
2019-05-05T22:38:06.292Z,7.40
2019-05-05T22:40:35.676Z,7.40
2019-05-05T22:43:05.042Z,7.40
2019-05-05T22:45:34.396Z,7.40
2019-05-05T22:48:04.684Z,7.40
2019-05-05T22:50:34.747Z,7.40
2019-05-05T22:53:04.204Z,7.40
2019-05-05T22:55:34.469Z,7.40
2019-05-05T22:58:04.145Z,7.30
2019-05-05T23:00:34.822Z,7.30
2019-05-05T23:03:14.447Z,7.30
2019-05-05T23:05:49.227Z,7.30
2019-05-05T23:08:18.779Z,7.30
2019-05-05T23:10:48.185Z,7.20
2019-05-05T23:13:19.233Z,7.20
2019-05-05T23:15:55.481Z,7.20
2019-05-05T23:18:27.111Z,7.20
2019-05-05T23:21:15.886Z,7.10
2019-05-05T23:24:07.368Z,7.10
2019-05-05T23:26:38.218Z,7.00
2019-05-05T23:29:07.548Z,7.00
2019-05-05T23:31:36.886Z,7.00
2019-05-05T23:34:06.777Z,7.00
2019-05-05T23:36:36.135Z,6.90
2019-05-05T23:39:07.189Z,6.90
2019-05-05T23:41:37.100Z,6.90
2019-05-05T23:44:06.473Z,6.80
2019-05-05T23:46:35.781Z,6.80
2019-05-05T23:49:05.166Z,6.80
2019-05-05T23:51:34.882Z,6.70
2019-05-05T23:54:04.553Z,6.60
2019-05-05T23:56:35.030Z,6.60
2019-05-05T23:59:04.652Z,6.60
